Aviation Digital Data Service (ADDS)

Output produced by METARs form (1636 UTC 03 December 2021)
found at http://www.aviationweather.gov/metar/data/
 
VTUU 031600Z 02008KT CAVOK 19/14 Q1018 NOSIG
VTUU 031500Z 04009KT CAVOK 20/15 Q1019 NOSIG
VTUU 031400Z 03011KT CAVOK 21/15 Q1018 NOSIG
VTUU 031300Z 04011KT CAVOK 21/15 Q1018 NOSIG
VTUU 031200Z 04010KT CAVOK 22/15 Q1017 NOSIG
VTUU 031100Z 01007KT CAVOK 23/15 Q1015 NOSIG
VTUU 031000Z 02010KT CAVOK 25/14 Q1014 NOSIG
VTUU 030900Z 02010KT 360V080 CAVOK 27/14 Q1014 NOSIG
VTUU 030800Z 03011KT 350V060 CAVOK 27/14 Q1014 NOSIG
VTUU 030700Z 04009KT 360V080 CAVOK 27/14 Q1015 NOSIG
VTUU 030600Z 03012KT 360V070 CAVOK 27/14 Q1016 NOSIG
VTUU 030500Z 04010KT 360V080 CAVOK 26/15 Q1017 NOSIG
VTUU 030400Z 04012KT 010V080 CAVOK 25/15 Q1018 NOSIG
VTUU 030300Z 03013KT CAVOK 23/14 Q1019 NOSIG
VTUU 030200Z 03014KT CAVOK 22/14 Q1019 NOSIG
VTUU 030100Z 02013KT CAVOK 20/14 Q1019 NOSIG
VTUU 030000Z 02010KT CAVOK 18/14 Q1018 NOSIG
VTUU 022300Z 02011KT CAVOK 17/14 Q1017 NOSIG
VTUU 022200Z 03010KT CAVOK 18/15 Q1017 NOSIG
VTUU 022100Z 03011KT CAVOK 18/15 Q1017 NOSIG
VTUU 022000Z 03010KT CAVOK 18/15 Q1016 NOSIG
VTUU 021900Z 03010KT CAVOK 18/15 Q1016 NOSIG
VTUU 021800Z 03009KT CAVOK 19/15 Q1017 NOSIG
VTUU 021700Z 02012KT CAVOK 19/15 Q1017 NOSIG
VTUU 021600Z 03011KT CAVOK 19/15 Q1017 NOSIG
TAF VTUU 031100Z 0312/0412 03010KT CAVOK